createdAt,value
2019-01-11T00:00:52.070Z,37.17
2019-01-11T00:03:20.647Z,44.67
2019-01-11T00:05:49.372Z,37.10
2019-01-11T00:08:18.165Z,39.03
2019-01-11T00:10:46.875Z,40.60
2019-01-11T00:13:15.618Z,39.50
2019-01-11T00:15:44.147Z,41.27
2019-01-11T00:18:12.849Z,40.13
2019-01-11T00:20:41.302Z,37.83
2019-01-11T00:23:10.942Z,40.13
2019-01-11T00:25:39.621Z,37.50
2019-01-11T00:28:08.178Z,39.87
2019-01-11T00:30:36.650Z,41.67
2019-01-11T00:33:05.349Z,37.80
2019-01-11T00:35:33.910Z,40.53
2019-01-11T00:38:02.439Z,39.50
2019-01-11T00:40:30.893Z,40.47
2019-01-11T00:42:59.440Z,39.90
2019-01-11T00:45:27.970Z,38.70
2019-01-11T00:47:56.504Z,35.83
2019-01-11T00:50:24.991Z,36.30
2019-01-11T00:52:53.524Z,33.97
2019-01-11T00:55:22.090Z,36.77
2019-01-11T00:57:50.747Z,40.27
2019-01-11T01:00:24.113Z,38.77
2019-01-11T01:02:52.704Z,40.97
2019-01-11T01:05:21.606Z,39.93
2019-01-11T01:07:50.259Z,39.23
2019-01-11T01:10:20.854Z,40.13
2019-01-11T01:12:49.537Z,38.80
2019-01-11T01:15:18.742Z,40.10
2019-01-11T01:17:47.421Z,40.17
2019-01-11T01:20:19.067Z,37.60
2019-01-11T01:22:47.608Z,36.67
2019-01-11T01:25:16.918Z,36.70
2019-01-11T01:27:45.458Z,37.67
2019-01-11T01:30:19.069Z,35.93
2019-01-11T01:32:47.545Z,35.83
2019-01-11T01:35:16.038Z,34.20
2019-01-11T01:37:44.989Z,37.40
2019-01-11T01:40:17.692Z,36.57
2019-01-11T01:42:46.400Z,36.20
2019-01-11T01:45:17.971Z,32.33
2019-01-11T01:47:46.438Z,36.87
2019-01-11T01:50:15.444Z,39.47
2019-01-11T01:52:44.048Z,35.87
2019-01-11T01:55:14.496Z,37.90
2019-01-11T01:57:43.181Z,34.00
2019-01-11T02:00:14.772Z,36.47
2019-01-11T02:02:43.233Z,36.83
2019-01-11T02:05:11.900Z,34.83
2019-01-11T02:07:40.733Z,35.13
2019-01-11T02:10:11.427Z,36.33
2019-01-11T02:12:40.199Z,37.13
2019-01-11T02:15:10.333Z,39.93
2019-01-11T02:17:38.934Z,37.53
2019-01-11T02:20:29.765Z,39.90
2019-01-11T02:22:58.309Z,38.73
2019-01-11T02:25:26.880Z,39.97
2019-01-11T02:27:55.416Z,36.70
2019-01-11T02:30:24.071Z,36.17
2019-01-11T02:32:53.363Z,36.47
2019-01-11T02:35:22.119Z,37.47
2019-01-11T02:37:50.670Z,39.27
2019-01-11T02:40:19.157Z,39.03
2019-01-11T02:42:47.771Z,42.07
2019-01-11T02:45:18.403Z,36.33
2019-01-11T02:47:46.922Z,38.37
2019-01-11T02:50:15.845Z,37.23
2019-01-11T02:52:44.463Z,38.87
2019-01-11T02:55:13.187Z,38.97
2019-01-11T02:57:41.737Z,41.07
2019-01-11T03:00:13.413Z,42.57
2019-01-11T03:02:42.334Z,40.27
2019-01-11T03:05:11.281Z,40.13
2019-01-11T03:07:40.499Z,38.27
2019-01-11T03:10:12.594Z,38.50
2019-01-11T03:12:41.456Z,42.23
2019-01-11T03:15:11.188Z,43.17
2019-01-11T03:17:40.138Z,42.07
2019-01-11T03:20:11.971Z,40.07
2019-01-11T03:22:40.846Z,42.27
2019-01-11T03:25:12.205Z,45.67
2019-01-11T03:27:40.921Z,44.20
2019-01-11T03:30:12.735Z,43.33
2019-01-11T03:32:41.722Z,45.97
2019-01-11T03:35:12.457Z,46.83
2019-01-11T03:37:41.384Z,47.27
2019-01-11T03:40:12.773Z,45.00
2019-01-11T03:42:41.542Z,41.83
2019-01-11T03:45:12.700Z,47.40
2019-01-11T03:47:41.171Z,44.03
2019-01-11T03:50:12.407Z,45.13
2019-01-11T03:52:41.112Z,45.67
2019-01-11T03:55:12.331Z,44.00
2019-01-11T03:57:41.008Z,41.83
2019-01-11T04:00:12.448Z,42.73
2019-01-11T04:02:41.069Z,49.50
2019-01-11T04:05:10.491Z,44.20
2019-01-11T04:07:39.097Z,47.47
2019-01-11T04:10:10.670Z,43.73
2019-01-11T04:12:39.237Z,46.20
2019-01-11T04:15:10.555Z,45.60
2019-01-11T04:17:39.180Z,47.90
2019-01-11T04:20:16.462Z,49.07
2019-01-11T04:22:46.793Z,45.47
2019-01-11T04:25:19.932Z,44.40
2019-01-11T04:27:49.741Z,47.90
2019-01-11T04:30:18.520Z,48.00
2019-01-11T04:32:47.149Z,48.43
2019-01-11T04:35:16.463Z,50.87
2019-01-11T04:37:45.011Z,50.47
2019-01-11T04:40:14.576Z,51.80
2019-01-11T04:42:43.131Z,51.83
2019-01-11T04:45:12.042Z,50.70
2019-01-11T04:47:40.645Z,50.13
2019-01-11T04:50:11.743Z,56.40
2019-01-11T04:52:40.346Z,50.87
2019-01-11T04:55:09.043Z,48.87
2019-01-11T04:57:37.608Z,52.97
2019-01-11T05:00:09.204Z,50.33
2019-01-11T05:02:37.685Z,53.17
2019-01-11T05:05:06.715Z,51.63
2019-01-11T05:07:35.390Z,47.93
2019-01-11T05:10:07.368Z,54.43
2019-01-11T05:12:35.850Z,51.20
2019-01-11T05:15:05.285Z,50.73
2019-01-11T05:17:33.852Z,52.67
2019-01-11T05:20:02.447Z,51.27
2019-01-11T05:22:31.059Z,50.60
2019-01-11T05:24:59.558Z,50.77
2019-01-11T05:27:28.017Z,49.63
2019-01-11T05:29:56.540Z,46.27
2019-01-11T05:32:25.104Z,44.90
2019-01-11T05:34:53.668Z,47.80
2019-01-11T05:37:22.137Z,47.47
2019-01-11T05:39:50.611Z,45.60
2019-01-11T05:42:19.324Z,39.23
2019-01-11T05:44:47.797Z,45.07
2019-01-11T05:47:16.261Z,44.60
2019-01-11T05:49:44.792Z,43.57
2019-01-11T05:52:13.265Z,41.47
2019-01-11T05:54:42.615Z,47.57
2019-01-11T05:57:11.234Z,42.00
2019-01-11T05:59:39.761Z,43.87
2019-01-11T06:02:08.234Z,45.33
2019-01-11T06:04:38.330Z,35.30
2019-01-11T06:07:22.595Z,40.30
2019-01-11T06:09:51.203Z,35.20
2019-01-11T06:12:19.721Z,38.67
2019-01-11T06:14:48.315Z,36.30
2019-01-11T06:17:16.906Z,36.97
2019-01-11T06:19:45.622Z,35.10
2019-01-11T06:22:14.233Z,37.13
2019-01-11T06:24:42.720Z,38.53
2019-01-11T06:27:11.175Z,34.43
2019-01-11T06:29:39.655Z,36.47
2019-01-11T06:32:08.206Z,36.90
2019-01-11T06:34:36.789Z,36.33
2019-01-11T06:37:05.363Z,34.40
2019-01-11T06:39:33.955Z,37.57
2019-01-11T06:42:04.076Z,34.80
2019-01-11T06:44:38.784Z,34.20
2019-01-11T06:47:02.849Z,35.53
2019-01-11T06:49:31.384Z,29.37
2019-01-11T06:51:59.952Z,34.00
2019-01-11T06:54:28.437Z,33.20
2019-01-11T06:56:56.988Z,33.17
2019-01-11T06:59:25.558Z,30.53
2019-01-11T07:01:54.119Z,36.63
2019-01-11T07:04:22.596Z,37.43
2019-01-11T07:06:51.128Z,37.53
2019-01-11T07:09:19.628Z,33.10
2019-01-11T07:11:48.148Z,37.30
2019-01-11T07:14:16.695Z,34.10
2019-01-11T07:16:45.178Z,40.17
2019-01-11T07:19:13.701Z,34.57
2019-01-11T07:21:42.244Z,40.37
2019-01-11T07:24:10.785Z,37.23
2019-01-11T07:26:39.448Z,36.57
2019-01-11T07:29:07.910Z,37.97
2019-01-11T07:31:36.465Z,39.40
2019-01-11T07:34:05.137Z,36.60
2019-01-11T07:36:35.124Z,32.60
2019-01-11T07:39:07.209Z,35.70
2019-01-11T07:41:35.733Z,37.23
2019-01-11T07:44:04.277Z,35.40
2019-01-11T07:46:32.835Z,32.27
2019-01-11T07:49:01.298Z,36.50
2019-01-11T07:51:29.895Z,31.43
2019-01-11T07:53:58.398Z,35.33
2019-01-11T07:56:26.948Z,37.67
2019-01-11T07:58:55.429Z,40.87
2019-01-11T08:01:23.905Z,40.60
2019-01-11T08:03:52.635Z,45.90
2019-01-11T08:06:21.627Z,43.27
2019-01-11T08:08:50.210Z,43.00
2019-01-11T08:11:18.689Z,47.80
2019-01-11T08:13:47.177Z,46.80
2019-01-11T08:16:15.823Z,45.10
2019-01-11T08:18:44.468Z,53.73
2019-01-11T08:21:12.978Z,41.30
2019-01-11T08:23:41.539Z,49.93
2019-01-11T08:26:10.218Z,46.87
2019-01-11T08:28:38.792Z,46.97
2019-01-11T08:31:07.453Z,47.40
2019-01-11T08:33:36.065Z,44.57
2019-01-11T08:36:05.301Z,48.97
2019-01-11T08:38:33.854Z,43.20
2019-01-11T08:41:02.418Z,43.07
2019-01-11T08:43:30.910Z,49.20
2019-01-11T08:45:59.387Z,53.20
2019-01-11T08:48:27.984Z,41.67
2019-01-11T08:51:02.475Z,45.17
2019-01-11T08:53:26.687Z,43.17
2019-01-11T08:55:55.201Z,40.80
2019-01-11T08:58:23.705Z,40.10
2019-01-11T09:00:53.079Z,42.93
2019-01-11T09:03:21.536Z,40.27
2019-01-11T09:05:50.204Z,39.63
2019-01-11T09:08:18.675Z,43.30
2019-01-11T09:10:47.297Z,36.63
2019-01-11T09:13:15.763Z,41.23
2019-01-11T09:15:44.229Z,42.23
2019-01-11T09:18:12.856Z,36.87
2019-01-11T09:20:41.758Z,43.03
2019-01-11T09:23:10.460Z,34.60
2019-01-11T09:25:39.086Z,39.70
2019-01-11T09:28:07.659Z,37.10
2019-01-11T09:30:39.556Z,35.97
2019-01-11T09:33:08.266Z,40.40
2019-01-11T09:35:36.817Z,38.13
2019-01-11T09:38:05.405Z,42.73
2019-01-11T09:40:34.020Z,36.17
2019-01-11T09:43:02.739Z,40.67
2019-01-11T09:45:31.260Z,48.27
2019-01-11T09:47:59.805Z,32.07
2019-01-11T09:50:28.276Z,35.33
2019-01-11T09:52:56.878Z,33.47
2019-01-11T09:55:25.359Z,40.33
2019-01-11T09:57:53.849Z,38.53
2019-01-11T10:00:26.944Z,39.70
2019-01-11T10:02:57.122Z,30.90
2019-01-11T10:05:25.739Z,36.37
2019-01-11T10:07:54.215Z,36.70
2019-01-11T10:10:22.784Z,38.40
2019-01-11T10:12:51.261Z,36.90
2019-01-11T10:15:19.748Z,33.87
2019-01-11T10:17:49.950Z,36.53
2019-01-11T10:20:18.474Z,31.40
2019-01-11T10:22:47.147Z,24.43
2019-01-11T10:25:15.810Z,28.53
2019-01-11T10:27:44.427Z,26.63
2019-01-11T10:30:18.044Z,34.33
2019-01-11T10:32:46.762Z,37.53
2019-01-11T10:35:15.455Z,26.77
2019-01-11T10:37:43.925Z,30.97
2019-01-11T10:40:15.184Z,32.73
2019-01-11T10:42:44.275Z,27.40
2019-01-11T10:45:15.925Z,25.30
2019-01-11T10:47:44.567Z,25.70
2019-01-11T10:50:17.422Z,29.70
2019-01-11T10:52:46.317Z,29.80
2019-01-11T10:55:16.352Z,31.70
2019-01-11T10:57:45.345Z,28.43
2019-01-11T11:00:16.803Z,22.67
2019-01-11T11:02:45.360Z,20.37
2019-01-11T11:05:13.947Z,20.83
2019-01-11T11:07:42.579Z,20.10
2019-01-11T11:10:12.607Z,23.83
2019-01-11T11:12:41.194Z,17.13
2019-01-11T11:15:15.162Z,14.70
2019-01-11T11:17:44.862Z,13.37
2019-01-11T11:20:15.621Z,19.93
2019-01-11T11:22:44.317Z,16.23
2019-01-11T11:25:15.707Z,14.43
2019-01-11T11:27:44.457Z,12.17
2019-01-11T11:30:15.092Z,11.13
2019-01-11T11:32:47.978Z,15.87
2019-01-11T11:35:16.621Z,16.70
2019-01-11T11:37:45.640Z,13.67
2019-01-11T11:40:14.242Z,12.93
2019-01-11T11:42:42.786Z,13.67
2019-01-11T11:45:11.550Z,13.17
2019-01-11T11:47:40.100Z,14.63
2019-01-11T11:50:10.397Z,15.87
2019-01-11T11:52:38.920Z,13.10
2019-01-11T11:55:08.836Z,16.43
2019-01-11T11:57:37.326Z,14.60
2019-01-11T12:00:11.890Z,12.73
2019-01-11T12:02:40.424Z,15.77
2019-01-11T12:05:09.141Z,17.20
2019-01-11T12:07:37.629Z,16.20
2019-01-11T12:10:08.917Z,13.43
2019-01-11T12:12:37.470Z,18.13
2019-01-11T12:15:06.780Z,13.80
2019-01-11T12:17:36.130Z,14.00
2019-01-11T12:20:10.592Z,12.60
2019-01-11T12:22:39.899Z,12.03
2019-01-11T12:25:09.222Z,13.70
2019-01-11T12:27:37.691Z,9.30
2019-01-11T12:30:09.255Z,12.83
2019-01-11T12:32:37.725Z,10.87
2019-01-11T12:35:06.644Z,12.70
2019-01-11T12:37:35.219Z,12.70
2019-01-11T12:40:05.275Z,8.77
2019-01-11T12:42:33.746Z,15.57
2019-01-11T12:45:02.285Z,11.67
2019-01-11T12:47:30.759Z,10.07
2019-01-11T12:49:59.383Z,9.37
2019-01-11T12:52:27.922Z,12.83
2019-01-11T12:54:56.447Z,9.17
2019-01-11T12:57:25.054Z,12.70
2019-01-11T12:59:53.712Z,8.73
2019-01-11T13:02:22.464Z,8.40
2019-01-11T13:04:51.092Z,8.20
2019-01-11T13:07:19.750Z,9.17
2019-01-11T13:09:48.292Z,10.60
2019-01-11T13:12:16.939Z,13.67
2019-01-11T13:14:45.516Z,9.37
2019-01-11T13:17:14.038Z,9.20
2019-01-11T13:19:42.580Z,10.90
2019-01-11T13:22:11.210Z,14.97
2019-01-11T13:24:39.678Z,10.67
2019-01-11T13:27:08.156Z,10.90
2019-01-11T13:29:36.696Z,10.70
2019-01-11T13:32:05.597Z,10.83
2019-01-11T13:34:34.089Z,8.73
2019-01-11T13:37:02.665Z,10.53
2019-01-11T13:39:33.508Z,10.30
2019-01-11T13:42:02.093Z,6.07
2019-01-11T13:44:30.749Z,5.80
2019-01-11T13:46:59.483Z,4.63
2019-01-11T13:49:28.063Z,5.03
2019-01-11T13:51:56.634Z,7.37
2019-01-11T13:54:25.090Z,9.50
2019-01-11T13:56:53.637Z,7.00
2019-01-11T13:59:22.274Z,5.87
2019-01-11T14:04:42.733Z,6.63
2019-01-11T14:07:11.210Z,10.20
2019-01-11T14:09:39.715Z,8.57
2019-01-11T14:12:08.353Z,8.03
2019-01-11T14:14:36.831Z,10.03
2019-01-11T14:17:05.586Z,9.77
2019-01-11T14:19:34.102Z,8.33
2019-01-11T14:22:02.640Z,10.03
2019-01-11T14:24:31.197Z,11.37
2019-01-11T14:26:59.797Z,11.63
2019-01-11T14:29:28.272Z,13.27
2019-01-11T14:31:57.658Z,12.60
2019-01-11T14:34:26.373Z,16.27
2019-01-11T14:36:55.497Z,12.23
2019-01-11T14:39:24.307Z,14.03
2019-01-11T14:41:53.449Z,12.97
2019-01-11T14:44:22.118Z,17.67
2019-01-11T14:46:50.722Z,14.97
2019-01-11T14:49:19.204Z,16.53
2019-01-11T14:51:48.911Z,17.07
2019-01-11T14:54:17.518Z,10.73
2019-01-11T14:56:46.065Z,15.60
2019-01-11T14:59:14.563Z,14.63
2019-01-11T15:01:43.097Z,14.60
2019-01-11T15:04:11.703Z,14.20
2019-01-11T15:06:40.284Z,12.60
2019-01-11T15:09:09.069Z,11.70
2019-01-11T15:11:37.527Z,17.07
2019-01-11T15:14:06.073Z,14.07
2019-01-11T15:16:34.614Z,12.77
2019-01-11T15:19:03.075Z,9.20
2019-01-11T15:21:31.569Z,8.97
2019-01-11T15:24:00.047Z,7.97
2019-01-11T15:26:28.619Z,7.83
2019-01-11T15:28:57.169Z,5.77
2019-01-11T15:31:25.724Z,11.07
2019-01-11T15:33:54.316Z,9.13
2019-01-11T15:36:23.201Z,8.97
2019-01-11T15:38:51.988Z,8.17
2019-01-11T15:41:20.540Z,8.30
2019-01-11T15:43:49.081Z,8.17
2019-01-11T15:46:17.571Z,15.70
2019-01-11T15:48:47.773Z,10.23
2019-01-11T15:51:18.062Z,10.07
2019-01-11T15:53:46.617Z,6.80
2019-01-11T15:56:19.832Z,10.00
2019-01-11T15:58:48.399Z,6.60
2019-01-11T16:01:16.935Z,7.67
2019-01-11T16:03:45.400Z,8.40
2019-01-11T16:06:30.089Z,9.03
2019-01-11T16:09:28.849Z,12.83
2019-01-11T16:12:09.435Z,11.40
2019-01-11T16:14:49.496Z,7.07
2019-01-11T16:17:21.104Z,12.03
2019-01-11T16:19:49.566Z,13.10
2019-01-11T16:22:18.175Z,10.93
2019-01-11T16:24:46.685Z,10.60
2019-01-11T16:27:15.235Z,11.07
2019-01-11T16:29:43.831Z,12.43
2019-01-11T16:32:12.363Z,7.43
2019-01-11T16:34:40.886Z,7.43
2019-01-11T16:37:09.349Z,11.93
2019-01-11T16:39:37.838Z,8.03
2019-01-11T16:42:06.296Z,14.10
2019-01-11T16:44:34.773Z,10.03
2019-01-11T16:47:03.403Z,11.00
2019-01-11T16:49:31.845Z,8.30
2019-01-11T16:52:00.330Z,12.43
2019-01-11T16:54:28.799Z,8.77
2019-01-11T16:56:57.294Z,12.13
2019-01-11T16:59:25.784Z,13.77
2019-01-11T17:01:54.257Z,13.50
2019-01-11T17:04:22.728Z,13.20
2019-01-11T17:06:51.297Z,14.33
2019-01-11T17:09:19.763Z,19.13
2019-01-11T17:11:48.323Z,18.70
2019-01-11T17:14:16.911Z,10.47
2019-01-11T17:16:45.456Z,17.93
2019-01-11T17:19:13.959Z,12.27
2019-01-11T17:21:42.504Z,13.13
2019-01-11T17:24:11.081Z,16.50
2019-01-11T17:26:39.624Z,13.87
2019-01-11T17:29:08.101Z,14.67
2019-01-11T17:31:36.698Z,11.03
2019-01-11T17:34:05.262Z,15.87
2019-01-11T17:36:35.275Z,16.80
2019-01-11T17:39:06.539Z,12.40
2019-01-11T17:41:36.612Z,12.97
2019-01-11T17:44:05.439Z,10.23
2019-01-11T17:46:34.157Z,9.33
2019-01-11T17:49:02.819Z,9.70
2019-01-11T17:51:31.341Z,9.90
2019-01-11T17:53:59.929Z,11.17
2019-01-11T17:56:28.397Z,6.17
2019-01-11T17:58:56.861Z,9.50
2019-01-11T18:01:25.341Z,7.00
2019-01-11T18:03:53.799Z,11.67
2019-01-11T18:06:22.368Z,6.40
2019-01-11T18:08:50.935Z,5.63
2019-01-11T18:11:19.420Z,8.43
2019-01-11T18:13:47.951Z,6.57
2019-01-11T18:16:16.635Z,7.60
2019-01-11T18:18:45.167Z,5.87
2019-01-11T18:21:13.636Z,6.83
2019-01-11T18:23:42.146Z,8.90
2019-01-11T18:26:10.680Z,10.97
2019-01-11T18:28:39.251Z,11.17
2019-01-11T18:31:07.780Z,9.60
2019-01-11T18:33:36.274Z,9.30
2019-01-11T18:36:04.857Z,8.63
2019-01-11T18:38:33.419Z,11.70
2019-01-11T18:41:01.884Z,8.40
2019-01-11T18:43:30.397Z,13.53
2019-01-11T18:45:58.893Z,14.47
2019-01-11T18:48:27.441Z,9.80
2019-01-11T18:50:55.976Z,11.07
2019-01-11T18:53:24.472Z,11.27
2019-01-11T18:55:52.937Z,12.10
2019-01-11T18:58:21.503Z,9.30
2019-01-11T19:00:49.980Z,12.90
2019-01-11T19:03:18.486Z,11.03
2019-01-11T19:05:48.582Z,12.23
2019-01-11T19:08:17.197Z,10.67
2019-01-11T19:10:45.721Z,14.03
2019-01-11T19:13:14.216Z,15.87
2019-01-11T19:15:42.719Z,14.23
2019-01-11T19:18:11.281Z,16.27
2019-01-11T19:20:39.767Z,11.30
2019-01-11T19:23:08.336Z,15.57
2019-01-11T19:25:36.965Z,14.57
2019-01-11T19:28:05.633Z,17.00
2019-01-11T19:30:34.120Z,14.27
2019-01-11T19:33:02.672Z,14.90
2019-01-11T19:35:31.266Z,10.67
2019-01-11T19:37:59.913Z,9.60
2019-01-11T19:40:28.446Z,12.17
2019-01-11T19:42:56.995Z,12.83
2019-01-11T19:45:25.550Z,6.27
2019-01-11T19:47:54.126Z,10.63
2019-01-11T19:50:23.276Z,6.23
2019-01-11T19:52:51.926Z,7.00
2019-01-11T19:55:20.882Z,5.27
2019-01-11T19:57:49.405Z,8.73
2019-01-11T20:00:23.195Z,9.73
2019-01-11T20:02:51.866Z,8.47
2019-01-11T20:05:20.662Z,5.17
2019-01-11T20:07:49.659Z,7.93
2019-01-11T20:10:21.388Z,7.20
2019-01-11T20:12:50.007Z,4.83
2019-01-11T20:15:18.660Z,3.80
2019-01-11T20:17:47.524Z,7.53
2019-01-11T20:20:16.911Z,6.93
2019-01-11T20:22:45.547Z,9.17
2019-01-11T20:25:16.880Z,10.70
2019-01-11T20:27:45.561Z,11.47
2019-01-11T20:30:22.608Z,5.23
2019-01-11T20:32:51.211Z,7.43
2019-01-11T20:35:19.748Z,6.27
2019-01-11T20:37:48.669Z,6.40
2019-01-11T20:40:17.875Z,11.97
2019-01-11T20:42:54.674Z,7.47
2019-01-11T20:45:23.414Z,6.27
2019-01-11T20:47:52.244Z,5.50
2019-01-11T20:50:22.126Z,5.07
2019-01-11T20:52:50.727Z,6.40
2019-01-11T20:55:19.327Z,15.20
2019-01-11T20:57:47.942Z,7.53
2019-01-11T21:00:20.089Z,7.40
2019-01-11T21:02:48.659Z,4.83
2019-01-11T21:05:17.579Z,7.10
2019-01-11T21:07:46.205Z,10.90
2019-01-11T21:10:15.386Z,4.77
2019-01-11T21:12:43.924Z,8.87
2019-01-11T21:15:15.542Z,11.70
2019-01-11T21:17:44.224Z,8.97
2019-01-11T21:20:15.325Z,10.37
2019-01-11T21:22:44.414Z,11.43
2019-01-11T21:25:15.111Z,9.20
2019-01-11T21:27:43.718Z,9.23
2019-01-11T21:30:17.661Z,8.07
2019-01-11T21:32:46.489Z,11.83
2019-01-11T21:35:15.084Z,12.77
2019-01-11T21:37:43.552Z,11.60
2019-01-11T21:40:17.519Z,11.53
2019-01-11T21:42:47.055Z,11.83
2019-01-11T21:45:16.076Z,11.03
2019-01-11T21:47:44.610Z,10.27
2019-01-11T21:50:23.737Z,9.37
2019-01-11T21:52:52.331Z,8.47
2019-01-11T21:55:20.977Z,8.43
2019-01-11T21:57:49.648Z,15.63
2019-01-11T22:00:21.111Z,11.37
2019-01-11T22:02:49.723Z,9.00
2019-01-11T22:05:18.319Z,10.27
2019-01-11T22:07:47.016Z,7.60
2019-01-11T22:10:16.932Z,7.33
2019-01-11T22:12:45.473Z,13.60
2019-01-11T22:15:16.979Z,8.43
2019-01-11T22:17:45.602Z,8.60
2019-01-11T22:20:17.196Z,10.37
2019-01-11T22:22:45.854Z,12.40
2019-01-11T22:25:15.977Z,6.80
2019-01-11T22:27:44.503Z,5.80
2019-01-11T22:30:18.408Z,5.33
2019-01-11T22:32:46.902Z,5.87
2019-01-11T22:35:15.436Z,8.23
2019-01-11T22:37:43.951Z,5.90
2019-01-11T22:40:19.984Z,5.30
2019-01-11T22:42:49.624Z,10.77
2019-01-11T22:45:18.205Z,7.27
2019-01-11T22:47:47.323Z,4.37
2019-01-11T22:50:16.419Z,7.23
2019-01-11T22:52:44.946Z,7.73
2019-01-11T22:55:15.677Z,7.23
2019-01-11T22:57:44.226Z,7.00
2019-01-11T23:00:38.076Z,7.23
2019-01-11T23:03:15.448Z,5.83
2019-01-11T23:05:43.911Z,3.50
2019-01-11T23:08:14.725Z,3.83
2019-01-11T23:11:01.114Z,6.87
2019-01-11T23:13:29.652Z,5.20
2019-01-11T23:15:58.190Z,6.63
2019-01-11T23:18:26.662Z,7.60
2019-01-11T23:20:55.302Z,5.53
2019-01-11T23:23:23.798Z,12.03
2019-01-11T23:25:52.366Z,4.63
2019-01-11T23:28:20.904Z,6.30
2019-01-11T23:30:49.388Z,9.30
2019-01-11T23:33:18.002Z,5.87
2019-01-11T23:35:46.485Z,6.33
2019-01-11T23:38:15.001Z,4.87
2019-01-11T23:40:43.507Z,3.53
2019-01-11T23:43:12.041Z,6.37
2019-01-11T23:45:40.824Z,8.20
2019-01-11T23:48:09.696Z,5.77
2019-01-11T23:50:38.151Z,8.17
2019-01-11T23:53:06.694Z,8.97
2019-01-11T23:55:36.754Z,6.87
2019-01-11T23:58:05.272Z,3.63
